Belden, MS (38826)

2:19 AM CDT on October 24, 2014 (GMT -0500)
Georgetown in The Villages | Change Station
CLOSE
Current Station
Personal Weather Station
Location: Tupelo, MS
Elevation: 312 ft
Nearby Weather Stations

Elev 312 ft 34.25 °N, 88.78 °W | Updated 6 minutes ago

Clear
Clear
52.7 °F
Feels Like 52.7 °F
N
0.0
Wind Variable Wind from WNW

Today
High -- | Low -- °F
--% Chance of Precip.
Yesterday
High -- | Low -- °F
Precip. -- in
7:07 AM 6:10 PM
New Moon, 0% visible
Pressure 30.09 in
Visibility 10.0 miles
Clouds Clear
Dew Point 50 °F
Humidity 92%
Rainfall 0.00 in
Snow Depth Not available.
UV 0 out of 12
Pollen 1.30 out of 12
Air Quality Not available.
Flu Activity No Activity
METAR KTUP 240653Z AUTO 01005KT 10SM CLR 11/09 A3010 RMK AO2 SLP190 T01110089 PWINO

More Conditions Fewer Conditions

Pressure 30.09 in
Visibility 10.0 miles
Clouds Clear
Dew Point 50 °F
Humidity 92%
Rainfall 0.00 in
Snow Depth Not available.
UV 0 out of 12
Pollen 1.30 out of 12
Air Quality Not available.
Flu Activity No Activity
METAR KTUP 240653Z AUTO 01005KT 10SM CLR 11/09 A3010 RMK AO2 SLP190 T01110089 PWINO

More Conditions Fewer Conditions

10-Day Weather Forecast

Almanac

Astronomy

Oct. 24, 2014 Rise Set
Actual Time 7:07 AM CDT 6:10 PM CDT
Civil Twilight 6:42 AM CDT 6:35 PM CDT
Nautical Twilight 6:12 AM CDT 7:05 PM CDT
Astronomical Twilight 5:43 AM CDT 7:34 PM CDT
Moon 7:45 AM CDT 6:52 PM CDT
Length of Visible Light 11h 53m
Length of Day
11h 02m
Tomorrow will be 1m 58s shorter.
New Moon, 0% of the Moon is Illuminated
Today
New Moon
Oct 30
First Quarter
Nov 6
Full
Nov 14
Last Quarter
Nov 22
New

Today's Extremes

State Highs State Lows

Community

WunderPhotos

Upload Photos

1,764,510 photos uploaded!

WunderBlogs® & News

Nearby

Snow Depth

Station Depth Elevation
No new snow has been reported.

Earthquake Activity

City Distance Mag. Time & Date
No recent earthquake activity has been reported nearby.
Minimum magnitude displayed is 2.5.

Coastal Water Temperatures

Place Temperature
No Stations Reporting

Nearby Weather Stations